Time;durP1;ratioP1;P1;durP2;ratioP2;P2;SDS_P1;SDS_P2;PMS_P1;PMS_P2;Temp;Humidity;BMP_temperature;BMP_pressure;BME280_temperature;BME280_humidity;BME280_pressure;Samples;Min_cycle;Max_cycle;Signal;HPM_P1;HPM_P2
2022/01/23 00:01:34;;;;;;;12.17;7.20;;;6.20;99.90;;;;;;4961545;29;20464;-57
2022/01/23 00:04:04;;;;;;;9.67;5.77;;;6.20;99.90;;;;;;4961799;29;20442;-53
2022/01/23 00:06:31;;;;;;;9.90;5.83;;;6.30;99.90;;;;;;4962240;29;20512;-55
2022/01/23 00:08:57;;;;;;;11.10;5.43;;;6.30;99.90;;;;;;4962154;29;20532;-51
2022/01/23 00:11:27;;;;;;;12.80;6.43;;;6.20;99.90;;;;;;4961782;29;20524;-55
2022/01/23 00:19:24;;;;;;;14.03;6.20;;;6.20;99.90;;;;;;4961506;29;20414;-48
2022/01/23 00:21:52;;;;;;;10.60;6.40;;;6.30;99.90;;;;;;4960942;29;20435;-54
2022/01/23 00:32:32;;;;;;;11.93;5.77;;;6.30;99.90;;;;;;4949118;29;20437;-52
2022/01/23 00:34:59;;;;;;;10.77;5.80;;;6.30;99.90;;;;;;4961341;29;20493;-49
2022/01/23 00:37:26;;;;;;;8.47;4.40;;;6.20;99.90;;;;;;4961859;29;20474;-51
2022/01/23 00:39:52;;;;;;;8.63;4.73;;;6.20;99.90;;;;;;4961349;29;20449;-49
2022/01/23 00:42:19;;;;;;;8.17;5.10;;;6.20;99.90;;;;;;4960950;29;20472;-45
2022/01/23 00:44:50;;;;;;;8.07;5.20;;;6.10;99.90;;;;;;4960938;29;20539;-50
2022/01/23 00:47:17;;;;;;;9.30;5.50;;;6.10;99.90;;;;;;4960431;29;20430;-48
2022/01/23 00:49:45;;;;;;;7.00;4.17;;;6.20;99.90;;;;;;4960771;29;20477;-55
2022/01/23 00:52:12;;;;;;;11.03;4.67;;;6.20;99.90;;;;;;4960824;29;20482;-53
2022/01/23 00:54:38;;;;;;;8.33;4.90;;;6.20;99.90;;;;;;4960607;29;20481;-48
2022/01/23 00:57:06;;;;;;;13.93;4.23;;;6.30;99.90;;;;;;4960211;29;20442;-49
2022/01/23 00:59:32;;;;;;;8.77;4.67;;;6.30;99.90;;;;;;4960082;29;20465;-57
2022/01/23 01:01:59;;;;;;;9.73;4.20;;;6.30;99.90;;;;;;4958937;29;20427;-50
2022/01/23 01:04:26;;;;;;;6.83;4.67;;;6.30;99.90;;;;;;4960227;29;20456;-54
2022/01/23 01:06:54;;;;;;;5.97;3.13;;;6.20;99.90;;;;;;4959919;29;20465;-49
2022/01/23 01:09:20;;;;;;;8.00;5.50;;;6.20;99.90;;;;;;4960035;29;20490;-52
2022/01/23 01:11:58;;;;;;;8.67;4.70;;;6.30;99.90;;;;;;4960107;29;20462;-50
2022/01/23 01:14:53;;;;;;;7.03;4.20;;;6.20;99.90;;;;;;4959653;29;20433;-51
2022/01/23 01:17:27;;;;;;;6.30;4.23;;;6.20;99.90;;;;;;4959821;29;20466;-49
2022/01/23 01:31:01;;;;;;;4.27;3.23;;;6.20;99.90;;;;;;4959397;29;20481;-50
2022/01/23 01:33:39;;;;;;;8.30;4.33;;;6.20;99.90;;;;;;4959858;29;20524;-58
2022/01/23 01:36:18;;;;;;;5.20;3.40;;;6.20;99.90;;;;;;4959694;29;20466;-57
2022/01/23 01:38:47;;;;;;;4.40;3.40;;;6.20;99.90;;;;;;4959521;29;20449;-48
2022/01/23 01:41:14;;;;;;;6.60;3.50;;;6.20;99.90;;;;;;4959220;29;20476;-57
2022/01/23 01:43:41;;;;;;;6.83;4.30;;;6.20;99.90;;;;;;4958991;29;20470;-54
2022/01/23 01:46:08;;;;;;;6.13;3.80;;;6.20;99.90;;;;;;4959440;29;20434;-52
2022/01/23 01:48:35;;;;;;;5.97;3.60;;;6.30;99.90;;;;;;4959172;29;20984;-52
2022/01/23 01:51:05;;;;;;;5.87;3.13;;;6.30;99.90;;;;;;4959197;29;20441;-48
2022/01/23 01:53:32;;;;;;;3.20;2.57;;;6.30;99.90;;;;;;4958653;29;20488;-50
2022/01/23 01:56:00;;;;;;;3.43;2.60;;;6.40;99.90;;;;;;4958642;29;20816;-47
2022/01/23 01:59:09;;;;;;;6.43;2.50;;;6.40;99.90;;;;;;4959131;29;20484;-56
2022/01/23 02:09:48;;;;;;;5.93;2.43;;;6.40;99.90;;;;;;4959288;29;20715;-54
2022/01/23 02:12:54;;;;;;;8.80;3.20;;;6.40;99.90;;;;;;4958466;29;20453;-59
2022/01/23 02:18:30;;;;;;;4.13;2.10;;;6.30;99.90;;;;;;5089084;27;20517;-53
2022/01/23 02:24:04;;;;;;;4.20;2.23;;;6.30;99.90;;;;;;5089466;28;20476;-51
2022/01/23 02:51:45;;;;;;;2.90;1.70;;;6.40;99.90;;;;;;5088943;28;20752;-56
2022/01/23 02:54:38;;;;;;;3.77;2.27;;;6.40;99.90;;;;;;5089012;28;20425;-52
2022/01/23 02:57:06;;;;;;;4.00;2.20;;;6.30;99.90;;;;;;5089139;27;20472;-49
2022/01/23 02:59:36;;;;;;;4.93;2.83;;;6.30;99.90;;;;;;5088900;27;20939;-57
2022/01/23 03:02:11;;;;;;;5.33;2.67;;;6.30;99.90;;;;;;5088429;28;20447;-52
2022/01/23 03:04:41;;;;;;;5.77;2.10;;;6.30;99.90;;;;;;5089035;27;20424;-50
2022/01/23 03:07:19;;;;;;;3.23;2.33;;;6.30;99.90;;;;;;5089108;27;20434;-52
2022/01/23 03:09:55;;;;;;;3.67;1.43;;;6.30;99.90;;;;;;5088880;27;20445;-48
2022/01/23 03:13:21;;;;;;;10.40;2.30;;;6.40;99.90;;;;;;5088931;27;20412;-50
2022/01/23 03:15:26;;;;;;;4.40;2.40;;;6.30;99.90;;;;;;5088653;28;20435;-51
2022/01/23 03:26:25;;;;;;;4.20;2.73;;;6.40;99.90;;;;;;5089182;28;20495;-55
2022/01/23 03:29:06;;;;;;;4.47;2.17;;;6.40;99.90;;;;;;5078661;28;20529;-49
2022/01/23 03:31:43;;;;;;;4.20;3.10;;;6.50;99.90;;;;;;5075183;28;20421;-52
2022/01/23 03:34:10;;;;;;;3.60;2.30;;;6.40;99.90;;;;;;5075301;28;20447;-50
2022/01/23 03:36:37;;;;;;;4.20;2.97;;;6.50;99.90;;;;;;5074803;28;20485;-56
2022/01/23 03:39:07;;;;;;;2.30;1.90;;;6.50;99.90;;;;;;5075206;28;20521;-52
2022/01/23 03:41:36;;;;;;;5.80;3.27;;;6.50;99.90;;;;;;5074824;28;21025;-51
2022/01/23 03:44:05;;;;;;;3.20;2.03;;;6.50;99.90;;;;;;5074789;28;20466;-53
2022/01/23 03:46:47;;;;;;;4.07;2.57;;;6.40;99.90;;;;;;5074894;28;20432;-53
2022/01/23 03:49:34;;;;;;;5.17;3.10;;;6.40;99.90;;;;;;5075158;28;20424;-51
2022/01/23 03:52:03;;;;;;;5.27;2.80;;;6.30;99.90;;;;;;5075158;28;20468;-48
2022/01/23 03:54:30;;;;;;;4.30;2.30;;;6.30;99.90;;;;;;5074628;28;20435;-52
2022/01/23 03:57:00;;;;;;;2.10;1.43;;;6.30;99.90;;;;;;5074305;28;20488;-50
2022/01/23 03:59:28;;;;;;;4.70;2.63;;;6.40;99.90;;;;;;5074443;28;20424;-48
2022/01/23 04:01:55;;;;;;;3.20;2.37;;;6.40;99.90;;;;;;5074696;28;20447;-52
2022/01/23 04:04:38;;;;;;;4.60;2.40;;;6.40;99.90;;;;;;5074370;28;20444;-51
2022/01/23 04:07:07;;;;;;;3.13;1.93;;;6.40;99.90;;;;;;5074617;28;20425;-56
2022/01/23 04:09:36;;;;;;;5.07;3.40;;;6.40;99.90;;;;;;5074061;28;20468;-55
2022/01/23 04:12:06;;;;;;;2.60;1.77;;;6.40;99.90;;;;;;5074492;28;20424;-52
2022/01/23 04:14:35;;;;;;;4.43;2.20;;;6.50;99.90;;;;;;5073913;28;20436;-48
2022/01/23 04:33:53;;;;;;;20.33;3.30;;;6.40;99.90;;;;;;5073204;27;20458;-50
2022/01/23 05:01:25;;;;;;;4.17;2.23;;;6.20;99.90;;;;;;5073708;28;20412;-53
2022/01/23 05:06:42;;;;;;;2.77;2.30;;;6.20;99.90;;;;;;5073502;28;20413;-56
2022/01/23 05:09:11;;;;;;;3.00;1.87;;;6.20;99.90;;;;;;5073414;28;20458;-55
2022/01/23 05:11:42;;;;;;;11.73;3.33;;;6.20;99.90;;;;;;5072881;28;20448;-56
2022/01/23 05:14:09;;;;;;;2.53;2.03;;;6.20;99.90;;;;;;5073567;28;20505;-54
2022/01/23 05:16:37;;;;;;;5.10;3.30;;;6.20;99.90;;;;;;5073081;28;20490;-49
2022/01/23 05:19:04;;;;;;;4.07;2.30;;;6.30;99.90;;;;;;5073438;28;20428;-56
2022/01/23 05:21:55;;;;;;;2.60;1.93;;;6.30;99.90;;;;;;5072798;28;20501;-53
2022/01/23 05:24:26;;;;;;;3.70;2.20;;;6.30;99.90;;;;;;5072700;28;20433;-49
2022/01/23 05:26:59;;;;;;;4.90;2.83;;;6.30;99.90;;;;;;5073399;28;20440;-53
2022/01/23 05:29:31;;;;;;;6.67;3.70;;;6.30;99.90;;;;;;5073069;28;20466;-52
2022/01/23 05:31:59;;;;;;;5.63;4.30;;;6.30;99.90;;;;;;5073142;28;20440;-51
2022/01/23 05:34:26;;;;;;;9.67;2.60;;;6.30;99.90;;;;;;5073317;28;20490;-53
2022/01/23 05:36:53;;;;;;;6.33;3.43;;;6.30;99.90;;;;;;5073137;28;20503;-55
2022/01/23 05:39:22;;;;;;;5.33;2.40;;;6.20;99.90;;;;;;5073337;28;20440;-49
2022/01/23 05:41:53;;;;;;;4.10;2.23;;;6.30;99.90;;;;;;5073177;28;20500;-54
2022/01/23 05:44:19;;;;;;;5.43;2.80;;;6.30;99.90;;;;;;5073067;28;20448;-50
2022/01/23 05:46:46;;;;;;;4.80;3.20;;;6.30;99.90;;;;;;5072912;28;20553;-52
2022/01/23 05:49:14;;;;;;;6.20;2.70;;;6.30;99.90;;;;;;5072649;28;20461;-49
2022/01/23 05:51:41;;;;;;;4.97;3.20;;;6.20;99.90;;;;;;5072489;28;20452;-48
2022/01/23 05:54:07;;;;;;;4.80;3.43;;;6.20;99.90;;;;;;5072547;28;20469;-54
2022/01/23 05:56:34;;;;;;;5.50;3.43;;;6.20;99.90;;;;;;5072832;28;20448;-56
2022/01/23 05:59:01;;;;;;;7.50;3.83;;;6.20;99.90;;;;;;5072975;28;20464;-49
2022/01/23 06:01:27;;;;;;;5.17;3.10;;;6.20;99.90;;;;;;5072392;28;20452;-55
2022/01/23 06:03:56;;;;;;;4.80;3.67;;;6.30;99.90;;;;;;5072883;28;20449;-54
2022/01/23 06:06:24;;;;;;;5.37;2.87;;;6.30;99.90;;;;;;5072853;28;20461;-50
2022/01/23 06:08:50;;;;;;;7.07;3.33;;;6.30;99.90;;;;;;5072679;28;20852;-52
2022/01/23 06:11:17;;;;;;;5.63;3.30;;;6.30;99.90;;;;;;5072590;28;20735;-54
2022/01/23 06:13:44;;;;;;;4.70;2.47;;;6.20;99.90;;;;;;5072496;28;20472;-50
2022/01/23 06:16:10;;;;;;;5.67;3.53;;;6.20;99.90;;;;;;5072574;28;20448;-51
2022/01/23 06:18:39;;;;;;;9.53;3.53;;;6.20;99.90;;;;;;5072174;28;20484;-51
2022/01/23 06:21:07;;;;;;;6.20;4.30;;;6.20;99.90;;;;;;5072148;28;20448;-51
2022/01/23 06:23:35;;;;;;;4.80;3.10;;;6.30;99.90;;;;;;5072815;28;20473;-56
2022/01/23 06:26:01;;;;;;;7.13;3.40;;;6.30;99.90;;;;;;5072289;28;20465;-51
2022/01/23 06:28:39;;;;;;;7.13;3.57;;;6.30;99.90;;;;;;5072567;28;20469;-51
2022/01/23 06:31:08;;;;;;;4.60;3.10;;;6.30;99.90;;;;;;5072668;28;20457;-54
2022/01/23 06:33:36;;;;;;;6.93;3.30;;;6.30;99.90;;;;;;5072358;28;20449;-52
2022/01/23 06:36:02;;;;;;;6.10;3.30;;;6.30;99.90;;;;;;5072138;28;20474;-51
2022/01/23 06:38:29;;;;;;;6.20;3.30;;;6.30;99.90;;;;;;5071693;28;20480;-56
2022/01/23 06:40:57;;;;;;;7.33;2.93;;;6.30;99.90;;;;;;5072302;28;20460;-56
2022/01/23 06:43:24;;;;;;;6.80;3.57;;;6.30;99.90;;;;;;5072281;28;20457;-52
2022/01/23 06:45:51;;;;;;;7.13;3.93;;;6.30;99.90;;;;;;5071993;28;20435;-55
2022/01/23 06:48:18;;;;;;;3.67;1.73;;;6.40;99.90;;;;;;5071856;28;20481;-55
2022/01/23 06:50:44;;;;;;;5.37;2.87;;;6.40;99.90;;;;;;5072087;28;20444;-52
2022/01/23 06:53:11;;;;;;;5.07;2.87;;;6.40;99.90;;;;;;5071921;28;20465;-48
2022/01/23 06:55:38;;;;;;;8.13;4.40;;;6.40;99.90;;;;;;5071579;28;20433;-47
2022/01/23 06:58:06;;;;;;;4.50;3.17;;;6.40;99.90;;;;;;5072060;28;20472;-54
2022/01/23 07:00:33;;;;;;;8.37;2.90;;;6.40;99.90;;;;;;5072094;28;20493;-56
2022/01/23 07:02:59;;;;;;;5.80;3.50;;;6.40;99.90;;;;;;5073015;28;20467;-54
2022/01/23 07:05:26;;;;;;;4.63;3.30;;;6.30;99.90;;;;;;5075201;28;20489;-49
2022/01/23 07:07:53;;;;;;;6.80;3.80;;;6.30;99.90;;;;;;5075016;28;20451;-53
2022/01/23 07:10:22;;;;;;;4.63;2.97;;;6.30;99.90;;;;;;5075064;28;20456;-52
2022/01/23 07:12:49;;;;;;;4.73;2.97;;;6.30;99.90;;;;;;5075218;28;20468;-49
2022/01/23 07:15:17;;;;;;;8.03;5.30;;;6.30;99.90;;;;;;5075353;28;20466;-50
2022/01/23 07:17:44;;;;;;;5.70;3.53;;;6.40;99.90;;;;;;5075356;28;20576;-56
2022/01/23 07:20:11;;;;;;;6.90;3.70;;;6.40;99.90;;;;;;5075985;28;20446;-52
2022/01/23 07:22:38;;;;;;;6.00;3.80;;;6.40;99.90;;;;;;5075693;28;20481;-52
2022/01/23 07:25:06;;;;;;;5.73;3.43;;;6.30;99.90;;;;;;5075431;28;20568;-53
2022/01/23 07:27:37;;;;;;;7.67;3.60;;;6.30;99.90;;;;;;5074990;28;20467;-50
2022/01/23 07:30:08;;;;;;;7.47;3.40;;;6.40;99.90;;;;;;5075344;28;20519;-58
2022/01/23 07:32:36;;;;;;;8.80;4.00;;;6.40;99.90;;;;;;5075028;28;20424;-50
2022/01/23 07:35:03;;;;;;;6.27;2.80;;;6.40;99.90;;;;;;5074985;28;20448;-57
2022/01/23 07:37:30;;;;;;;16.43;4.03;;;6.50;99.90;;;;;;5075664;28;20490;-53
2022/01/23 07:39:57;;;;;;;6.90;4.07;;;6.40;99.90;;;;;;5074770;28;20483;-55
2022/01/23 07:42:23;;;;;;;5.00;3.37;;;6.40;99.90;;;;;;5074328;28;20499;-54
2022/01/23 07:44:50;;;;;;;5.93;3.70;;;6.50;99.90;;;;;;5074825;28;20468;-56
2022/01/23 07:47:17;;;;;;;12.13;4.10;;;6.40;99.90;;;;;;5074586;28;20643;-57
2022/01/23 07:49:46;;;;;;;6.30;3.70;;;6.50;99.90;;;;;;5074757;28;20445;-51
2022/01/23 07:52:12;;;;;;;3.90;2.40;;;6.50;99.90;;;;;;5074180;28;20484;-55
2022/01/23 07:54:39;;;;;;;6.37;3.30;;;6.50;99.90;;;;;;5074228;28;20494;-54
2022/01/23 07:57:06;;;;;;;5.77;3.00;;;6.50;99.90;;;;;;5074331;28;20457;-50
2022/01/23 07:59:34;;;;;;;6.00;3.87;;;6.50;99.90;;;;;;5074588;28;20440;-52
2022/01/23 08:02:01;;;;;;;7.00;3.77;;;6.50;99.90;;;;;;5074746;28;20448;-57
2022/01/23 08:04:31;;;;;;;4.37;3.20;;;6.50;99.90;;;;;;5074481;28;20473;-51
2022/01/23 08:07:09;;;;;;;7.50;4.30;;;6.50;99.90;;;;;;5074373;28;20526;-54
2022/01/23 08:09:36;;;;;;;4.30;2.70;;;6.40;99.90;;;;;;5074501;28;20498;-54
2022/01/23 08:12:06;;;;;;;5.10;2.93;;;6.40;99.90;;;;;;5074069;28;20441;-53
2022/01/23 08:14:33;;;;;;;7.90;3.60;;;6.50;99.90;;;;;;5074702;28;20440;-54
2022/01/23 08:16:59;;;;;;;5.30;2.63;;;6.50;99.90;;;;;;5074030;28;20517;-54
2022/01/23 08:19:26;;;;;;;4.60;2.87;;;6.50;99.90;;;;;;5073861;28;20521;-57
2022/01/23 08:21:53;;;;;;;7.13;3.80;;;6.60;99.90;;;;;;5073928;28;20493;-50
2022/01/23 08:24:20;;;;;;;6.67;4.13;;;6.60;99.90;;;;;;5073879;28;20497;-55
2022/01/23 08:26:47;;;;;;;6.80;2.80;;;6.70;99.90;;;;;;5073735;28;20443;-57
2022/01/23 08:29:14;;;;;;;9.17;4.33;;;6.70;99.90;;;;;;5073610;28;20436;-51
2022/01/23 08:31:40;;;;;;;5.83;2.73;;;6.80;99.90;;;;;;5073556;28;20464;-57
2022/01/23 08:34:07;;;;;;;4.63;2.83;;;6.80;99.90;;;;;;5073735;28;20473;-54
2022/01/23 08:36:35;;;;;;;4.80;2.90;;;6.80;99.90;;;;;;5073478;28;20420;-54
2022/01/23 08:39:02;;;;;;;5.07;2.60;;;6.90;99.90;;;;;;5073629;28;20482;-56
2022/01/23 08:41:50;;;;;;;4.40;2.57;;;6.90;99.90;;;;;;5073250;28;20500;-57
2022/01/23 08:44:19;;;;;;;4.00;2.53;;;7.00;99.90;;;;;;5073288;28;20500;-52
2022/01/23 08:46:46;;;;;;;5.87;2.40;;;7.00;99.90;;;;;;5072917;28;20456;-50
2022/01/23 08:49:13;;;;;;;5.07;2.90;;;7.00;99.90;;;;;;5072734;28;20501;-57
2022/01/23 08:51:40;;;;;;;5.77;3.47;;;7.00;99.90;;;;;;5072547;28;20431;-55
2022/01/23 08:54:07;;;;;;;7.50;4.00;;;7.00;99.90;;;;;;5072460;28;20481;-55
2022/01/23 08:56:35;;;;;;;7.50;4.43;;;7.00;99.90;;;;;;5073162;28;20453;-58
2022/01/23 08:59:02;;;;;;;7.33;3.60;;;7.00;99.90;;;;;;5072968;28;20475;-56
2022/01/23 09:01:30;;;;;;;3.33;2.13;;;7.00;99.90;;;;;;5072835;28;20481;-53
2022/01/23 09:03:57;;;;;;;4.10;3.33;;;7.10;99.90;;;;;;5072582;28;20457;-52
2022/01/23 09:06:24;;;;;;;4.60;2.70;;;7.20;99.90;;;;;;5072998;28;20481;-52
2022/01/23 09:08:51;;;;;;;3.33;2.30;;;7.20;99.90;;;;;;5073061;28;20469;-53
2022/01/23 09:11:26;;;;;;;4.20;2.67;;;7.30;99.90;;;;;;5072544;28;20488;-54
2022/01/23 09:14:06;;;;;;;3.63;1.90;;;7.30;99.90;;;;;;5072733;28;20519;-57
2022/01/23 09:16:35;;;;;;;3.47;2.00;;;7.20;99.90;;;;;;5071857;28;20538;-58
2022/01/23 09:19:02;;;;;;;5.03;2.93;;;7.30;99.90;;;;;;5072780;28;20513;-53
2022/01/23 09:21:28;;;;;;;2.87;2.10;;;7.40;99.90;;;;;;5072040;28;20456;-55
2022/01/23 09:23:55;;;;;;;3.17;2.37;;;7.40;99.90;;;;;;5072338;28;20441;-57
2022/01/23 09:26:23;;;;;;;3.73;2.57;;;7.40;99.90;;;;;;5071714;28;20511;-51
2022/01/23 09:28:52;;;;;;;4.90;2.80;;;7.30;99.90;;;;;;5072464;28;20509;-55
2022/01/23 09:31:29;;;;;;;3.60;2.43;;;7.40;99.90;;;;;;5072563;28;20438;-52
2022/01/23 09:33:58;;;;;;;4.03;2.60;;;7.40;99.90;;;;;;5072176;28;20427;-49
2022/01/23 09:36:25;;;;;;;5.13;2.47;;;7.40;99.90;;;;;;5072304;28;20455;-55
2022/01/23 09:38:51;;;;;;;2.90;1.90;;;7.40;99.90;;;;;;5071934;28;20482;-51
2022/01/23 09:41:26;;;;;;;4.63;2.13;;;7.50;99.90;;;;;;5072171;28;20449;-55
2022/01/23 09:43:55;;;;;;;3.70;2.00;;;7.50;99.90;;;;;;5072214;28;20495;-58
2022/01/23 09:46:24;;;;;;;4.60;2.40;;;7.40;99.90;;;;;;5072097;28;20420;-53
2022/01/23 09:48:52;;;;;;;4.57;2.30;;;7.40;99.90;;;;;;5071948;28;20441;-52
2022/01/23 09:51:21;;;;;;;3.20;2.27;;;7.40;99.90;;;;;;5072123;28;20465;-57
2022/01/23 09:53:50;;;;;;;5.10;2.03;;;7.40;99.90;;;;;;5071625;28;20445;-57
2022/01/23 09:56:27;;;;;;;2.03;1.40;;;7.40;99.90;;;;;;5071978;28;20443;-52
2022/01/23 09:58:57;;;;;;;2.90;2.03;;;7.50;99.90;;;;;;5071616;28;20464;-57
2022/01/23 10:01:25;;;;;;;3.33;1.80;;;7.50;99.90;;;;;;5071808;28;20483;-56
2022/01/23 10:03:52;;;;;;;4.93;2.40;;;7.50;99.90;;;;;;5071633;28;20499;-51
2022/01/23 10:06:20;;;;;;;4.80;2.60;;;7.50;99.90;;;;;;5071493;28;20442;-52
2022/01/23 10:08:48;;;;;;;3.43;2.40;;;7.60;99.90;;;;;;5071805;28;20464;-51
2022/01/23 10:11:16;;;;;;;3.70;1.60;;;7.70;99.90;;;;;;5071431;28;20450;-50
2022/01/23 10:13:43;;;;;;;4.30;2.30;;;7.70;99.90;;;;;;5071101;28;20451;-49
2022/01/23 10:16:10;;;;;;;4.47;3.60;;;7.70;99.90;;;;;;5071005;28;20511;-52
2022/01/23 10:18:39;;;;;;;4.77;2.43;;;7.70;99.90;;;;;;5071183;28;20490;-53
2022/01/23 10:21:08;;;;;;;3.13;2.30;;;7.60;99.90;;;;;;5071486;28;20463;-54
2022/01/23 10:23:36;;;;;;;3.23;2.10;;;7.70;99.90;;;;;;5071287;28;20432;-53
2022/01/23 10:26:06;;;;;;;2.53;1.60;;;7.70;99.90;;;;;;5070832;28;20539;-56
2022/01/23 10:28:35;;;;;;;2.43;1.30;;;7.70;99.90;;;;;;5072040;28;20477;-57
2022/01/23 10:31:12;;;;;;;3.37;2.47;;;7.70;99.90;;;;;;5070865;28;20435;-55
2022/01/23 10:33:47;;;;;;;3.13;2.40;;;7.70;99.90;;;;;;5070739;28;20481;-54
2022/01/23 10:36:21;;;;;;;4.63;2.67;;;7.70;99.90;;;;;;5071065;28;20457;-54
2022/01/23 10:38:53;;;;;;;2.63;1.87;;;7.60;99.90;;;;;;5073371;28;20632;-53
2022/01/23 10:41:44;;;;;;;3.03;1.90;;;7.60;99.90;;;;;;5075104;28;20422;-58
2022/01/23 10:50:02;;;;;;;4.00;2.30;;;7.60;99.90;;;;;;5074870;28;20404;-53
2022/01/23 10:52:32;;;;;;;3.03;1.77;;;7.60;99.90;;;;;;5075132;28;20503;-57
2022/01/23 10:55:07;;;;;;;4.57;2.27;;;7.70;99.90;;;;;;5075177;28;20523;-53
2022/01/23 10:57:38;;;;;;;5.40;2.83;;;7.80;99.90;;;;;;5074801;28;20427;-53
2022/01/23 11:00:07;;;;;;;3.87;2.23;;;7.80;99.90;;;;;;5073845;28;20478;-53
2022/01/23 11:02:40;;;;;;;3.23;2.37;;;7.80;99.90;;;;;;5073417;28;20503;-55
2022/01/23 11:05:10;;;;;;;3.83;2.30;;;7.90;99.90;;;;;;5074118;28;20443;-54
2022/01/23 11:07:42;;;;;;;3.33;2.20;;;7.90;99.90;;;;;;5074425;28;20480;-53
2022/01/23 11:10:13;;;;;;;2.70;1.80;;;8.00;99.90;;;;;;5074070;28;20495;-58
2022/01/23 11:18:23;;;;;;;2.90;2.30;;;8.00;99.90;;;;;;5098156;27;20518;-53
2022/01/23 11:20:51;;;;;;;2.47;1.67;;;8.00;99.90;;;;;;5074991;28;20446;-54
2022/01/23 11:23:21;;;;;;;3.00;1.70;;;7.90;99.90;;;;;;5112258;27;20453;-53
2022/01/23 11:26:09;;;;;;;2.73;1.47;;;7.90;99.90;;;;;;5120398;27;20449;-55
2022/01/23 11:28:39;;;;;;;4.10;1.67;;;7.90;99.90;;;;;;5161640;27;20487;-53
2022/01/23 11:31:08;;;;;;;3.97;1.90;;;7.80;99.90;;;;;;5103098;27;20426;-55
2022/01/23 11:33:35;;;;;;;3.63;2.13;;;7.90;99.90;;;;;;5130197;27;20446;-52
2022/01/23 11:36:05;;;;;;;3.83;2.00;;;8.10;99.90;;;;;;5142793;27;20462;-50
2022/01/23 11:38:32;;;;;;;3.83;1.57;;;8.20;99.90;;;;;;5091587;27;20463;-50
2022/01/23 11:54:59;;;;;;;3.90;2.00;;;8.40;99.90;;;;;;5080530;27;20432;-54
2022/01/23 11:57:42;;;;;;;3.40;2.50;;;8.40;99.90;;;;;;5178041;27;20459;-51
2022/01/23 12:00:14;;;;;;;2.83;1.77;;;8.90;99.90;;;;;;5103256;27;20500;-57
2022/01/23 12:02:42;;;;;;;2.93;1.60;;;9.50;99.90;;;;;;5159878;27;20432;-54
2022/01/23 12:05:24;;;;;;;2.40;1.50;;;9.40;99.90;;;;;;5091584;27;20432;-58
2022/01/23 12:08:16;;;;;;;2.63;1.80;;;9.20;99.90;;;;;;5117593;27;20504;-55
2022/01/23 12:11:16;;;;;;;2.50;1.43;;;9.10;99.90;;;;;;5105442;27;20444;-56
2022/01/23 12:16:19;;;;;;;3.10;1.97;;;9.00;99.90;;;;;;5073687;27;20436;-56
2022/01/23 12:16:52;;;;;;;2.10;1.40;;;8.90;99.90;;;;;;5122192;27;20440;-55
2022/01/23 12:19:21;;;;;;;3.63;1.80;;;8.80;99.90;;;;;;5068222;27;20571;-59
2022/01/23 12:21:50;;;;;;;1.83;1.40;;;8.80;99.90;;;;;;5132642;27;20473;-59
2022/01/23 12:24:19;;;;;;;1.97;1.30;;;8.70;99.90;;;;;;5055418;28;20506;-52
2022/01/23 12:26:47;;;;;;;2.67;1.50;;;8.70;99.90;;;;;;5056401;28;20467;-57
2022/01/23 12:29:17;;;;;;;1.47;1.23;;;8.70;99.90;;;;;;5057938;28;20461;-57
2022/01/23 12:31:44;;;;;;;3.60;1.60;;;8.60;99.90;;;;;;5058283;28;20428;-55
2022/01/23 12:34:12;;;;;;;1.87;1.33;;;8.70;99.90;;;;;;5058026;28;20452;-54
2022/01/23 12:36:40;;;;;;;3.20;1.00;;;8.70;99.90;;;;;;5056915;28;20787;-59
2022/01/23 12:39:19;;;;;;;2.20;1.63;;;8.70;99.90;;;;;;5056090;28;20559;-55
2022/01/23 12:42:00;;;;;;;3.70;2.10;;;8.70;99.90;;;;;;5055581;28;20518;-53
2022/01/23 12:44:37;;;;;;;3.33;1.83;;;8.70;99.90;;;;;;5055665;28;20745;-52
2022/01/23 12:47:06;;;;;;;1.87;1.33;;;8.60;99.90;;;;;;5055269;28;20467;-56
2022/01/23 12:49:35;;;;;;;2.50;1.30;;;8.60;99.90;;;;;;5055226;28;20443;-55
2022/01/23 12:52:15;;;;;;;4.20;1.10;;;8.60;99.90;;;;;;5055247;28;20742;-54
2022/01/23 12:54:56;;;;;;;2.70;1.50;;;8.60;99.90;;;;;;5055022;28;20767;-52
2022/01/23 12:57:32;;;;;;;4.03;0.97;;;8.60;99.90;;;;;;5055279;28;20467;-56
2022/01/23 13:00:03;;;;;;;1.87;1.20;;;8.60;99.90;;;;;;5055241;28;20475;-55
2022/01/23 13:02:39;;;;;;;2.53;1.00;;;8.60;99.90;;;;;;5055569;28;20475;-59
2022/01/23 13:05:07;;;;;;;2.67;1.53;;;8.60;99.90;;;;;;5055972;28;20464;-55
2022/01/23 13:07:41;;;;;;;2.43;1.10;;;8.60;99.90;;;;;;5055130;28;20455;-55
2022/01/23 13:10:24;;;;;;;2.17;1.03;;;8.50;99.90;;;;;;5055413;28;20478;-56
2022/01/23 13:13:04;;;;;;;1.50;1.30;;;8.50;99.90;;;;;;5055502;28;20504;-53
2022/01/23 13:15:58;;;;;;;2.23;1.10;;;8.50;99.90;;;;;;5054723;28;20522;-60
2022/01/23 13:18:39;;;;;;;1.57;1.23;;;8.50;99.90;;;;;;5059646;28;20575;-59
2022/01/23 13:30:00;;;;;;;3.83;1.40;;;8.40;99.90;;;;;;5015240;28;20413;-49
2022/01/23 13:32:40;;;;;;;1.83;1.53;;;8.40;99.90;;;;;;5014140;28;20454;-50
2022/01/23 13:35:12;;;;;;;6.10;2.87;;;8.40;99.90;;;;;;5041997;28;20451;-47
2022/01/23 13:37:41;;;;;;;2.03;1.53;;;8.40;99.90;;;;;;5058530;28;20459;-47
2022/01/23 13:40:12;;;;;;;3.53;2.30;;;8.40;99.90;;;;;;5058870;28;20495;-49
2022/01/23 13:51:27;;;;;;;3.47;1.70;;;8.30;99.90;;;;;;5056309;28;20737;-47
2022/01/23 13:59:34;;;;;;;3.70;1.87;;;8.20;99.90;;;;;;5056622;28;20784;-49
2022/01/23 14:02:15;;;;;;;3.13;1.57;;;8.20;99.90;;;;;;5056843;28;20516;-49
2022/01/23 14:04:47;;;;;;;2.37;1.67;;;8.20;99.90;;;;;;5057003;28;20529;-48
2022/01/23 14:07:21;;;;;;;2.70;1.57;;;8.20;99.90;;;;;;5057041;28;20458;-48
2022/01/23 14:09:48;;;;;;;2.87;2.43;;;8.20;99.90;;;;;;5057202;28;20466;-49
2022/01/23 14:12:18;;;;;;;2.93;2.37;;;8.20;99.90;;;;;;5058144;28;20447;-54
2022/01/23 14:14:55;;;;;;;3.30;2.37;;;8.20;99.90;;;;;;5058104;28;20471;-47
2022/01/23 14:17:28;;;;;;;6.60;1.90;;;8.20;99.90;;;;;;5056557;28;20957;-52
2022/01/23 14:20:06;;;;;;;4.10;3.00;;;8.10;99.90;;;;;;5056847;28;20468;-48
2022/01/23 14:22:36;;;;;;;2.73;1.60;;;8.10;99.90;;;;;;5055987;28;20535;-51
2022/01/23 14:25:12;;;;;;;5.23;2.30;;;8.10;99.90;;;;;;5057483;28;20479;-50
2022/01/23 14:27:41;;;;;;;4.63;1.77;;;8.10;99.90;;;;;;5057608;28;20444;-49
2022/01/23 14:30:13;;;;;;;3.03;2.50;;;8.10;99.90;;;;;;5058903;28;20430;-49
2022/01/23 14:32:44;;;;;;;2.83;2.00;;;8.20;99.90;;;;;;5058026;28;20462;-48
2022/01/23 14:35:15;;;;;;;3.53;2.50;;;8.10;99.90;;;;;;5057102;28;20565;-50
2022/01/23 14:37:43;;;;;;;2.97;1.70;;;8.10;99.90;;;;;;5061087;28;20474;-50
2022/01/23 14:40:19;;;;;;;2.87;1.80;;;8.10;99.90;;;;;;5061168;28;20483;-52
2022/01/23 14:43:04;;;;;;;2.33;1.43;;;8.10;99.90;;;;;;5056885;28;20529;-50
2022/01/23 14:45:34;;;;;;;2.27;1.80;;;8.10;99.90;;;;;;5056764;28;20740;-50
2022/01/23 14:48:02;;;;;;;2.90;1.67;;;8.00;99.90;;;;;;5058012;28;20536;-49
2022/01/23 14:50:34;;;;;;;3.00;2.37;;;8.00;99.90;;;;;;5055813;28;20455;-51
2022/01/23 14:53:07;;;;;;;4.50;2.83;;;8.00;99.90;;;;;;5071030;28;20473;-51
2022/01/23 14:55:35;;;;;;;4.43;2.77;;;8.00;99.90;;;;;;5076866;27;20779;-51
2022/01/23 14:58:04;;;;;;;3.40;2.20;;;8.00;99.90;;;;;;5079996;27;20422;-47
2022/01/23 15:00:32;;;;;;;2.07;1.83;;;8.00;99.90;;;;;;5107968;27;20465;-45
2022/01/23 15:03:05;;;;;;;3.10;2.30;;;8.00;99.90;;;;;;5085821;27;20411;-45
2022/01/23 15:05:35;;;;;;;2.40;1.87;;;8.00;99.90;;;;;;5085622;27;20450;-44
2022/01/23 15:08:04;;;;;;;2.30;1.40;;;8.00;99.90;;;;;;5075549;27;20439;-51
2022/01/23 15:10:32;;;;;;;1.87;1.67;;;8.00;99.90;;;;;;5084849;27;20529;-47
2022/01/23 15:12:59;;;;;;;3.37;1.40;;;8.00;99.90;;;;;;5054017;28;20442;-50
2022/01/23 15:15:27;;;;;;;2.80;1.53;;;8.00;99.90;;;;;;5067446;27;20448;-51
2022/01/23 15:17:54;;;;;;;2.23;1.80;;;8.00;99.90;;;;;;5055502;27;20493;-52
2022/01/23 15:20:24;;;;;;;1.90;1.10;;;8.00;99.90;;;;;;5054198;28;20486;-51
2022/01/23 15:22:52;;;;;;;3.63;1.60;;;8.10;99.90;;;;;;5066515;28;20464;-51
2022/01/23 15:25:19;;;;;;;1.97;1.57;;;8.00;99.90;;;;;;5073527;28;20444;-48
2022/01/23 15:27:47;;;;;;;1.80;1.47;;;8.00;99.90;;;;;;5064628;28;20458;-46
2022/01/23 15:30:31;;;;;;;1.70;0.80;;;8.00;99.90;;;;;;5058032;28;21012;-48
2022/01/23 15:32:59;;;;;;;2.50;1.50;;;8.00;99.90;;;;;;5119653;27;20484;-49
2022/01/23 15:35:27;;;;;;;1.40;0.70;;;8.00;99.90;;;;;;5117924;28;20457;-56
2022/01/23 15:37:56;;;;;;;1.50;1.20;;;8.00;99.90;;;;;;5115939;28;20565;-49
2022/01/23 15:40:24;;;;;;;1.97;1.17;;;8.00;99.90;;;;;;5103909;28;20548;-48
2022/01/23 15:42:52;;;;;;;2.07;1.00;;;8.00;99.90;;;;;;5102454;28;20444;-51
2022/01/23 15:45:21;;;;;;;1.60;1.47;;;7.90;99.90;;;;;;5102832;28;20836;-49
2022/01/23 15:47:48;;;;;;;1.93;1.50;;;7.80;99.90;;;;;;5097687;28;20469;-52
2022/01/23 15:50:17;;;;;;;2.70;1.33;;;7.80;99.90;;;;;;5096047;28;20481;-49
2022/01/23 15:52:45;;;;;;;3.07;1.27;;;7.80;99.90;;;;;;5095062;28;20546;-46
2022/01/23 15:55:14;;;;;;;4.73;2.20;;;7.80;99.90;;;;;;5095057;28;20518;-48
2022/01/23 15:57:45;;;;;;;6.50;1.47;;;7.80;99.90;;;;;;5099055;28;20554;-56
2022/01/23 16:00:13;;;;;;;6.53;1.80;;;7.80;99.90;;;;;;5106749;28;20495;-51
2022/01/23 16:02:41;;;;;;;3.77;1.53;;;7.90;99.90;;;;;;5104704;28;20461;-57